Time;durP1;ratioP1;P1;durP2;ratioP2;P2;SDS_P1;SDS_P2;PMS_P1;PMS_P2;Temp;Humidity;BMP_temperature;BMP_pressure;BME280_temperature;BME280_humidity;BME280_pressure;Samples;Min_cycle;Max_cycle;Signal;HPM_P1;HPM_P2
2022/01/15 00:00:01;;;;;;;28.67;5.68;;;3.20;99.90;;;;;;4866637;29;20101;-65
2022/01/15 00:02:26;;;;;;;20.40;4.30;;;3.30;99.90;;;;;;4863138;29;20037;-65
2022/01/15 00:04:52;;;;;;;20.58;4.00;;;3.60;99.90;;;;;;4853180;29;20036;-65
2022/01/15 00:07:17;;;;;;;21.42;4.03;;;3.40;99.90;;;;;;4862144;29;20050;-65
2022/01/15 00:09:44;;;;;;;19.80;3.90;;;3.30;99.90;;;;;;4868389;29;20037;-65
2022/01/15 00:12:10;;;;;;;25.75;3.92;;;3.40;99.90;;;;;;4868940;29;20040;-65
2022/01/15 00:14:40;;;;;;;18.75;3.05;;;3.50;99.90;;;;;;4868772;29;20044;-65
2022/01/15 00:17:16;;;;;;;30.98;3.47;;;3.50;99.90;;;;;;4865020;29;20043;-66
2022/01/15 00:19:42;;;;;;;21.60;3.13;;;3.50;99.90;;;;;;4851280;29;20037;-66
2022/01/15 00:22:07;;;;;;;22.48;3.10;;;3.60;99.90;;;;;;4862275;29;20405;-66
2022/01/15 00:24:33;;;;;;;20.15;2.75;;;3.50;99.90;;;;;;4865733;29;20037;-65
2022/01/15 00:26:58;;;;;;;25.17;3.45;;;3.40;99.90;;;;;;4867311;29;20036;-65
2022/01/15 00:29:24;;;;;;;21.55;3.17;;;3.40;99.90;;;;;;4864383;29;20037;-65
2022/01/15 00:31:49;;;;;;;19.75;3.33;;;3.30;99.90;;;;;;4862956;29;20055;-65
2022/01/15 00:34:14;;;;;;;49.03;11.07;;;3.30;99.90;;;;;;4859140;29;20030;-66
2022/01/15 00:36:40;;;;;;;32.42;3.75;;;3.30;99.90;;;;;;4834954;29;20104;-65
2022/01/15 00:39:06;;;;;;;17.10;3.22;;;3.30;99.90;;;;;;4867188;29;20085;-65
2022/01/15 00:41:31;;;;;;;20.05;2.50;;;3.30;99.90;;;;;;4863983;29;20124;-65
2022/01/15 00:43:56;;;;;;;13.90;2.38;;;3.30;99.90;;;;;;4864256;29;20041;-65
2022/01/15 00:46:22;;;;;;;20.98;4.30;;;3.30;99.90;;;;;;4849215;29;20041;-65
2022/01/15 00:48:47;;;;;;;23.27;3.15;;;3.30;99.90;;;;;;4858645;29;20049;-65
2022/01/15 00:51:13;;;;;;;24.90;2.97;;;3.30;99.90;;;;;;4864514;29;20060;-65
2022/01/15 00:53:38;;;;;;;31.02;3.65;;;3.30;99.90;;;;;;4850921;29;20385;-65
2022/01/15 00:56:04;;;;;;;33.38;4.22;;;3.30;99.90;;;;;;4866779;29;20057;-65
2022/01/15 00:58:29;;;;;;;24.23;3.08;;;3.20;99.90;;;;;;4850292;29;20038;-65
2022/01/15 01:00:55;;;;;;;14.98;2.70;;;3.10;99.90;;;;;;4862000;29;20040;-65
2022/01/15 01:03:20;;;;;;;16.67;2.63;;;2.90;99.90;;;;;;4858522;29;20070;-66
2022/01/15 01:05:46;;;;;;;23.05;3.10;;;2.70;99.90;;;;;;4852961;29;20032;-65
2022/01/15 01:08:12;;;;;;;13.73;2.47;;;2.50;99.90;;;;;;4840678;29;20084;-65
2022/01/15 01:10:54;;;;;;;19.85;2.88;;;2.30;99.90;;;;;;4829247;29;20033;-65
2022/01/15 01:24:01;;;;;;;23.35;3.00;;;2.10;99.90;;;;;;4861766;29;20127;-66
2022/01/15 01:26:43;;;;;;;32.63;2.88;;;2.10;99.90;;;;;;4847644;29;20187;-65
2022/01/15 01:29:37;;;;;;;37.45;3.33;;;2.10;99.90;;;;;;4861044;29;20116;-65
2022/01/15 01:32:10;;;;;;;;;;;2.20;99.90;;;;;;4861915;29;20541;-65
2022/01/15 01:34:38;;;;;;;24.77;2.50;;;2.30;99.90;;;;;;4866607;29;19982;-65
2022/01/15 01:37:18;;;;;;;36.33;4.03;;;2.20;99.90;;;;;;4863338;29;20123;-65
2022/01/15 01:39:48;;;;;;;34.47;3.90;;;2.10;99.90;;;;;;4867429;29;20092;-65
2022/01/15 01:44:42;;;;;;;37.08;3.75;;;2.10;99.90;;;;;;4862229;29;20398;-65
2022/01/15 01:47:20;;;;;;;41.10;3.63;;;2.10;99.90;;;;;;4858088;29;20028;-65
2022/01/15 01:49:46;;;;;;;46.42;3.72;;;2.20;99.90;;;;;;4861531;29;20096;-65
2022/01/15 01:52:11;;;;;;;30.55;3.17;;;2.10;99.90;;;;;;4861633;29;20032;-65
2022/01/15 01:54:37;;;;;;;26.10;3.05;;;1.90;99.90;;;;;;4844003;29;20033;-65
2022/01/15 01:57:02;;;;;;;24.92;3.15;;;1.80;99.90;;;;;;4848999;29;20148;-65
2022/01/15 01:59:28;;;;;;;19.58;3.03;;;1.60;99.90;;;;;;4848497;29;20117;-65
2022/01/15 02:01:53;;;;;;;31.15;3.20;;;1.50;99.90;;;;;;4865637;29;20033;-65
2022/01/15 02:04:19;;;;;;;33.95;3.97;;;1.50;99.90;;;;;;4863664;29;20393;-65
2022/01/15 02:06:44;;;;;;;32.53;3.47;;;1.40;99.90;;;;;;4864750;29;20037;-65
2022/01/15 02:09:10;;;;;;;42.42;3.83;;;1.60;99.90;;;;;;4860220;29;20130;-65
2022/01/15 02:11:38;;;;;;;29.90;3.75;;;1.70;99.90;;;;;;4863766;29;20390;-65
2022/01/15 02:14:04;;;;;;;23.15;3.33;;;1.70;99.90;;;;;;4862954;29;20043;-65
2022/01/15 02:16:29;;;;;;;29.13;2.97;;;1.60;99.90;;;;;;4862651;29;20033;-65
2022/01/15 02:18:55;;;;;;;27.10;2.92;;;1.50;99.90;;;;;;4865243;29;20025;-65
2022/01/15 02:23:46;;;;;;;23.38;3.03;;;1.20;99.90;;;;;;4861590;29;20115;-65
2022/01/15 02:26:11;;;;;;;26.33;2.97;;;1.10;99.90;;;;;;4857386;29;20052;-65
2022/01/15 02:28:37;;;;;;;42.20;3.40;;;1.00;99.90;;;;;;4862203;29;20040;-65
2022/01/15 02:31:02;;;;;;;34.88;4.50;;;0.90;99.90;;;;;;4865567;29;20072;-65
2022/01/15 02:33:28;;;;;;;46.95;4.15;;;0.90;99.90;;;;;;4863596;29;20033;-65
2022/01/15 02:35:53;;;;;;;29.45;3.67;;;1.00;99.90;;;;;;4862783;29;20995;-65
2022/01/15 02:38:19;;;;;;;25.90;3.95;;;1.10;99.90;;;;;;4863757;29;20024;-65
2022/01/15 02:40:44;;;;;;;44.92;5.20;;;1.00;99.90;;;;;;4862412;29;20265;-65
2022/01/15 02:43:11;;;;;;;48.88;4.50;;;1.00;99.90;;;;;;4862740;29;20080;-65
2022/01/15 02:45:41;;;;;;;27.70;3.92;;;1.20;99.90;;;;;;4865634;29;20033;-65
2022/01/15 02:48:06;;;;;;;26.38;3.20;;;1.10;99.90;;;;;;4868542;29;20064;-65
2022/01/15 02:50:31;;;;;;;28.60;3.05;;;1.00;99.90;;;;;;4866947;29;20125;-65
2022/01/15 02:52:57;;;;;;;50.72;4.60;;;0.90;99.90;;;;;;4864217;29;20033;-65
2022/01/15 02:55:22;;;;;;;37.33;4.45;;;1.40;99.90;;;;;;4867958;29;20064;-65
2022/01/15 02:57:48;;;;;;;33.97;3.35;;;0.90;99.90;;;;;;4868129;29;20021;-65
2022/01/15 03:00:13;;;;;;;28.17;3.53;;;0.80;99.90;;;;;;4866551;29;20505;-65
2022/01/15 03:02:39;;;;;;;36.95;4.22;;;0.70;99.90;;;;;;4850451;29;20045;-65
2022/01/15 03:05:04;;;;;;;25.95;4.10;;;0.60;99.90;;;;;;4838186;29;20044;-66
2022/01/15 03:07:30;;;;;;;37.80;5.35;;;0.80;99.90;;;;;;4861532;29;20056;-65
2022/01/15 03:09:55;;;;;;;33.08;4.47;;;0.90;99.90;;;;;;4862258;29;20044;-65
2022/01/15 03:12:21;;;;;;;49.42;5.78;;;1.00;99.90;;;;;;4867584;29;20069;-65
2022/01/15 03:14:48;;;;;;;38.17;5.25;;;1.10;99.90;;;;;;4852921;29;20047;-65
2022/01/15 03:17:13;;;;;;;45.72;4.88;;;1.20;99.90;;;;;;4866262;29;20402;-65
2022/01/15 03:19:39;;;;;;;52.28;4.85;;;1.20;99.90;;;;;;4867537;29;20036;-65
2022/01/15 03:22:04;;;;;;;29.40;4.72;;;1.10;99.90;;;;;;4862633;29;20060;-65
2022/01/15 03:24:30;;;;;;;36.08;5.20;;;1.00;99.90;;;;;;4855848;29;20117;-65
2022/01/15 03:26:55;;;;;;;20.45;3.83;;;0.80;99.90;;;;;;4870184;29;20029;-64
2022/01/15 03:29:21;;;;;;;29.40;3.90;;;0.60;99.90;;;;;;4855818;29;20049;-65
2022/01/15 03:31:46;;;;;;;45.53;5.30;;;0.50;99.90;;;;;;4869258;29;20504;-65
2022/01/15 03:34:12;;;;;;;28.80;3.65;;;0.30;99.90;;;;;;4864246;29;20093;-65
2022/01/15 03:36:37;;;;;;;28.88;3.78;;;0.20;99.90;;;;;;4861266;29;20112;-65
2022/01/15 03:39:03;;;;;;;59.65;5.93;;;0.20;99.90;;;;;;4847568;29;20553;-65
2022/01/15 03:41:28;;;;;;;51.63;6.32;;;0.30;99.90;;;;;;4866295;29;20041;-65
2022/01/15 03:43:54;;;;;;;33.30;5.55;;;0.50;99.90;;;;;;4865079;29;20082;-65
2022/01/15 03:46:19;;;;;;;31.75;4.90;;;0.60;99.90;;;;;;4860466;29;20523;-65
2022/01/15 03:48:47;;;;;;;38.42;5.30;;;0.50;99.90;;;;;;4863667;29;21013;-65
2022/01/15 03:51:13;;;;;;;83.95;6.60;;;0.40;99.90;;;;;;4858919;29;20077;-65
2022/01/15 03:53:38;;;;;;;66.65;6.03;;;0.40;99.90;;;;;;4868102;29;20116;-65
2022/01/15 03:56:04;;;;;;;43.20;5.38;;;0.50;99.90;;;;;;4851457;29;20081;-65
2022/01/15 03:58:29;;;;;;;48.60;5.72;;;0.50;99.90;;;;;;4864685;29;20033;-65
2022/01/15 04:00:54;;;;;;;55.22;6.57;;;0.50;99.90;;;;;;4864760;29;20029;-65
2022/01/15 04:03:20;;;;;;;40.58;5.50;;;0.40;99.90;;;;;;4861071;29;20043;-65
2022/01/15 04:05:45;;;;;;;41.25;5.25;;;0.40;99.90;;;;;;4862322;29;20033;-65
2022/01/15 04:08:11;;;;;;;40.20;5.22;;;0.30;99.90;;;;;;4868970;29;20589;-65
2022/01/15 04:10:36;;;;;;;36.00;4.82;;;0.20;99.90;;;;;;4865471;29;20052;-65
2022/01/15 04:13:02;;;;;;;83.32;6.78;;;0.10;99.90;;;;;;4861053;29;20114;-65
2022/01/15 04:15:27;;;;;;;45.13;5.93;;;0.20;99.90;;;;;;4864754;29;20473;-65
2022/01/15 04:17:53;;;;;;;43.10;7.82;;;0.40;99.90;;;;;;4861724;29;20063;-65
2022/01/15 04:20:21;;;;;;;55.58;6.95;;;0.60;99.90;;;;;;4862458;29;20092;-65
2022/01/15 04:22:46;;;;;;;59.80;6.90;;;0.60;99.90;;;;;;4867543;29;20096;-65
2022/01/15 04:25:12;;;;;;;62.50;7.25;;;0.70;99.90;;;;;;4851200;29;20490;-65
2022/01/15 04:27:38;;;;;;;61.25;8.02;;;0.70;99.90;;;;;;4864104;29;20608;-65
2022/01/15 04:30:04;;;;;;;48.97;6.38;;;0.80;99.90;;;;;;4850605;29;20136;-65
2022/01/15 04:32:30;;;;;;;63.95;8.30;;;0.80;99.90;;;;;;4864475;29;20442;-65
2022/01/15 04:34:55;;;;;;;66.63;8.68;;;0.80;99.90;;;;;;4867551;29;20080;-65
2022/01/15 04:37:23;;;;;;;68.60;8.55;;;0.80;99.90;;;;;;4869371;29;20037;-65
2022/01/15 04:39:49;;;;;;;85.90;8.48;;;0.80;99.90;;;;;;4865339;29;20028;-65
2022/01/15 04:42:20;;;;;;;68.05;9.75;;;0.80;99.90;;;;;;4863418;29;20040;-65
2022/01/15 04:44:46;;;;;;;66.60;8.18;;;0.80;99.90;;;;;;4864689;29;20041;-65
2022/01/15 04:47:11;;;;;;;65.70;7.65;;;0.80;99.90;;;;;;4858378;29;20037;-65
2022/01/15 04:49:37;;;;;;;87.68;8.95;;;0.80;99.90;;;;;;4851324;29;20093;-65
2022/01/15 04:52:02;;;;;;;74.45;9.35;;;0.80;99.90;;;;;;4866901;29;20088;-65
2022/01/15 04:54:28;;;;;;;93.03;11.25;;;0.80;99.90;;;;;;4863173;29;20042;-65
2022/01/15 04:56:53;;;;;;;78.57;9.70;;;0.80;99.90;;;;;;4866390;29;20036;-65
2022/01/15 04:59:20;;;;;;;87.60;10.38;;;0.80;99.90;;;;;;4859849;29;20094;-65
2022/01/15 05:01:45;;;;;;;100.32;13.70;;;0.80;99.90;;;;;;4860167;29;20029;-65
2022/01/15 05:04:11;;;;;;;96.85;12.43;;;0.80;99.90;;;;;;4851191;29;20089;-65
2022/01/15 05:06:36;;;;;;;100.72;12.52;;;0.90;99.90;;;;;;4862638;29;20025;-65
2022/01/15 05:09:06;;;;;;;132.55;12.95;;;0.80;99.90;;;;;;4863557;29;20744;-65
2022/01/15 05:11:44;;;;;;;112.35;13.02;;;0.90;99.90;;;;;;4861667;29;20152;-65
2022/01/15 05:14:09;;;;;;;115.78;12.05;;;0.90;99.90;;;;;;4861642;29;20043;-65
2022/01/15 05:16:35;;;;;;;115.72;15.13;;;0.90;99.90;;;;;;4866439;29;20037;-65
2022/01/15 05:19:00;;;;;;;149.38;13.48;;;0.90;99.90;;;;;;4866448;29;20132;-65
2022/01/15 05:21:26;;;;;;;180.15;14.95;;;0.90;99.90;;;;;;4863117;29;20132;-66
2022/01/15 05:23:51;;;;;;;184.30;13.43;;;0.80;99.90;;;;;;4863302;29;20037;-65
2022/01/15 05:26:17;;;;;;;162.95;15.68;;;0.80;99.90;;;;;;4859080;29;20047;-65
2022/01/15 05:28:42;;;;;;;131.10;13.20;;;0.80;99.90;;;;;;4850981;29;20449;-65
2022/01/15 05:31:08;;;;;;;127.55;13.63;;;0.80;99.90;;;;;;4863751;29;20081;-65
2022/01/15 05:33:33;;;;;;;111.20;13.32;;;0.80;99.90;;;;;;4849935;29;20029;-65
2022/01/15 05:35:59;;;;;;;84.25;12.88;;;0.80;99.90;;;;;;4864389;29;20064;-65
2022/01/15 05:38:24;;;;;;;194.18;17.63;;;0.90;99.90;;;;;;4861017;29;20044;-65
2022/01/15 05:40:50;;;;;;;162.70;15.43;;;0.80;99.90;;;;;;4853623;29;20037;-65
2022/01/15 05:43:15;;;;;;;109.00;13.98;;;0.80;99.90;;;;;;4857728;29;20056;-65
2022/01/15 05:45:41;;;;;;;144.98;14.23;;;0.80;99.90;;;;;;4866291;29;20031;-65
2022/01/15 05:48:06;;;;;;;111.63;12.35;;;0.80;99.90;;;;;;4865617;29;20485;-65
2022/01/15 05:50:32;;;;;;;138.30;14.98;;;0.80;99.90;;;;;;4863840;29;20041;-65
2022/01/15 05:52:58;;;;;;;115.80;13.38;;;0.80;99.90;;;;;;4847618;29;20405;-65
2022/01/15 05:55:24;;;;;;;108.35;13.63;;;0.80;99.90;;;;;;4860719;29;20048;-65
2022/01/15 05:57:49;;;;;;;110.07;14.35;;;0.80;99.90;;;;;;4860026;29;20046;-65
2022/01/15 06:00:15;;;;;;;107.45;13.30;;;0.80;99.90;;;;;;4868459;29;20049;-65
2022/01/15 06:02:40;;;;;;;150.68;15.18;;;0.80;99.90;;;;;;4850963;29;20036;-65
2022/01/15 06:05:06;;;;;;;157.93;15.35;;;0.80;99.90;;;;;;4845159;29;20139;-65
2022/01/15 06:07:31;;;;;;;152.77;15.50;;;0.80;99.90;;;;;;4861448;29;20041;-65
2022/01/15 06:09:57;;;;;;;152.25;16.13;;;0.80;99.90;;;;;;4859433;29;20040;-65
2022/01/15 06:12:29;;;;;;;131.10;16.05;;;0.80;99.90;;;;;;4860545;29;20773;-65
2022/01/15 06:14:54;;;;;;;136.75;15.45;;;0.80;99.90;;;;;;4865358;29;20032;-65
2022/01/15 06:17:20;;;;;;;112.00;13.93;;;0.80;99.90;;;;;;4848632;29;20112;-65
2022/01/15 06:19:45;;;;;;;147.52;15.88;;;0.80;99.90;;;;;;4866636;29;20032;-65
2022/01/15 06:22:10;;;;;;;145.43;13.82;;;0.90;99.90;;;;;;4851103;29;20049;-65
2022/01/15 06:24:36;;;;;;;107.00;13.25;;;0.90;99.90;;;;;;4862078;29;20064;-65
2022/01/15 06:27:01;;;;;;;128.07;17.52;;;0.80;99.90;;;;;;4849156;29;20029;-65
2022/01/15 06:29:27;;;;;;;158.30;16.17;;;0.90;99.90;;;;;;4867630;29;20502;-65
2022/01/15 06:31:54;;;;;;;222.70;28.50;;;0.90;99.90;;;;;;4850062;29;20029;-65
2022/01/15 06:34:19;;;;;;;110.40;17.15;;;0.90;99.90;;;;;;4851173;29;20107;-65
2022/01/15 06:36:44;;;;;;;139.77;15.30;;;0.90;99.90;;;;;;4864369;29;20065;-65
2022/01/15 06:39:10;;;;;;;244.38;19.75;;;0.90;99.90;;;;;;4843824;29;20025;-65
2022/01/15 06:41:35;;;;;;;219.63;42.88;;;0.90;99.90;;;;;;4872591;29;20497;-66
2022/01/15 06:44:01;;;;;;;134.75;19.85;;;0.90;99.90;;;;;;4853369;29;20494;-65
2022/01/15 06:46:26;;;;;;;147.15;15.98;;;0.90;99.90;;;;;;4864878;29;20080;-65
2022/01/15 06:48:52;;;;;;;163.02;17.20;;;0.90;99.90;;;;;;4865523;29;20041;-65
2022/01/15 06:51:17;;;;;;;149.88;16.65;;;0.90;99.90;;;;;;4862264;29;20853;-65
2022/01/15 06:53:43;;;;;;;131.57;16.25;;;0.90;99.90;;;;;;4862784;29;20029;-65
2022/01/15 06:56:08;;;;;;;186.35;18.85;;;0.80;99.90;;;;;;4868707;29;20041;-65
2022/01/15 06:58:34;;;;;;;120.13;17.08;;;0.90;99.90;;;;;;4867876;29;20033;-65
2022/01/15 07:01:00;;;;;;;254.00;24.55;;;0.80;99.90;;;;;;4852222;29;20095;-65
2022/01/15 07:03:25;;;;;;;140.35;17.27;;;0.80;99.90;;;;;;4862040;29;20041;-65
2022/01/15 07:05:51;;;;;;;228.05;25.10;;;0.80;99.90;;;;;;4845262;29;20033;-65
2022/01/15 07:08:16;;;;;;;227.73;20.30;;;0.80;99.90;;;;;;4862137;29;20112;-65
2022/01/15 07:10:43;;;;;;;193.88;22.35;;;0.90;99.90;;;;;;4852509;29;20194;-65
2022/01/15 07:13:09;;;;;;;217.90;25.92;;;0.90;99.90;;;;;;4868373;29;20069;-66
2022/01/15 07:15:34;;;;;;;169.25;18.35;;;0.90;99.90;;;;;;4864639;29;20072;-65
2022/01/15 07:18:00;;;;;;;190.75;19.08;;;0.90;99.90;;;;;;4845968;29;20033;-65
2022/01/15 07:20:25;;;;;;;130.05;16.83;;;0.90;99.90;;;;;;4861477;29;20418;-65
2022/01/15 07:22:51;;;;;;;162.18;20.10;;;0.90;99.90;;;;;;4865719;29;20029;-65
2022/01/15 07:25:16;;;;;;;224.23;22.40;;;0.90;99.90;;;;;;4867538;29;20045;-65
2022/01/15 07:27:42;;;;;;;201.32;18.33;;;0.90;99.90;;;;;;4857519;29;20048;-65
2022/01/15 07:30:07;;;;;;;179.60;17.80;;;0.80;99.90;;;;;;4866581;29;20128;-65
2022/01/15 07:32:33;;;;;;;130.23;16.58;;;0.80;99.90;;;;;;4855857;29;20125;-64
2022/01/15 07:34:58;;;;;;;152.95;17.92;;;0.80;99.90;;;;;;4862410;29;20088;-65
2022/01/15 07:37:24;;;;;;;171.95;18.90;;;0.70;99.90;;;;;;4850081;29;20037;-65
2022/01/15 07:39:49;;;;;;;161.25;18.85;;;0.80;99.90;;;;;;4870899;29;20103;-65
2022/01/15 07:42:15;;;;;;;137.68;16.65;;;0.80;99.90;;;;;;4869041;29;20040;-64
2022/01/15 07:44:40;;;;;;;126.50;14.57;;;0.80;99.90;;;;;;4866106;29;20497;-65
2022/01/15 07:47:05;;;;;;;121.68;15.25;;;0.80;99.90;;;;;;4860295;29;20537;-65
2022/01/15 07:49:32;;;;;;;121.00;15.18;;;0.80;99.90;;;;;;4837634;29;20045;-65
2022/01/15 07:51:58;;;;;;;158.07;18.27;;;0.80;99.90;;;;;;4837359;29;20104;-65
2022/01/15 07:54:23;;;;;;;188.18;25.67;;;0.80;99.90;;;;;;4864016;29;20037;-65
2022/01/15 07:56:50;;;;;;;199.77;24.50;;;0.90;99.90;;;;;;4851541;29;20391;-65
2022/01/15 07:59:15;;;;;;;148.23;19.75;;;0.90;99.90;;;;;;4844530;29;20070;-65
2022/01/15 08:01:41;;;;;;;173.20;31.17;;;0.90;99.90;;;;;;4861851;29;20037;-65
2022/01/15 08:04:06;;;;;;;154.55;24.77;;;0.90;99.90;;;;;;4862157;29;20607;-65
2022/01/15 08:06:32;;;;;;;130.63;24.67;;;0.90;99.90;;;;;;4866547;29;20105;-65
2022/01/15 08:08:57;;;;;;;216.48;49.25;;;0.90;99.90;;;;;;4866769;29;20037;-65
2022/01/15 08:11:23;;;;;;;191.00;21.50;;;0.90;99.90;;;;;;4863409;29;20033;-65
2022/01/15 08:13:48;;;;;;;181.30;31.33;;;0.90;99.90;;;;;;4864428;29;20618;-65
2022/01/15 08:16:14;;;;;;;141.88;19.63;;;0.90;99.90;;;;;;4859509;29;20510;-65
2022/01/15 08:18:40;;;;;;;153.13;18.10;;;1.00;99.90;;;;;;4865806;29;20032;-65
2022/01/15 08:21:05;;;;;;;139.02;32.53;;;1.00;99.90;;;;;;4868472;29;20128;-65
2022/01/15 08:23:31;;;;;;;201.63;38.60;;;1.00;99.90;;;;;;4865076;29;20037;-65
2022/01/15 08:25:58;;;;;;;145.13;19.60;;;1.00;99.90;;;;;;4864726;29;20261;-65
2022/01/15 08:28:24;;;;;;;169.32;21.30;;;1.00;99.90;;;;;;4861767;29;20062;-65
2022/01/15 08:30:50;;;;;;;139.85;18.20;;;1.00;99.90;;;;;;4852114;29;20025;-65
2022/01/15 08:33:16;;;;;;;120.88;21.63;;;1.10;99.90;;;;;;4862935;29;20493;-65
2022/01/15 08:35:41;;;;;;;116.25;22.20;;;1.00;99.90;;;;;;4852119;29;20044;-65
2022/01/15 08:38:07;;;;;;;93.63;18.23;;;1.00;99.90;;;;;;4856852;29;20029;-64
2022/01/15 08:40:33;;;;;;;155.05;21.73;;;1.00;99.90;;;;;;4847285;29;20087;-64
2022/01/15 08:42:58;;;;;;;113.13;18.67;;;1.10;99.90;;;;;;4868021;29;20052;-64
2022/01/15 08:45:24;;;;;;;151.63;31.13;;;1.10;99.90;;;;;;4867951;29;20480;-64
2022/01/15 08:47:49;;;;;;;111.70;17.85;;;1.10;99.90;;;;;;4854019;29;20033;-65
2022/01/15 08:50:15;;;;;;;128.48;16.13;;;1.20;99.90;;;;;;4863461;29;20778;-64
2022/01/15 08:52:41;;;;;;;132.40;18.38;;;1.20;99.90;;;;;;4846643;29;20549;-65
2022/01/15 08:55:06;;;;;;;122.05;16.02;;;1.20;99.90;;;;;;4861805;29;20044;-64
2022/01/15 08:57:32;;;;;;;95.57;16.30;;;1.10;99.90;;;;;;4862537;29;20047;-64
2022/01/15 08:59:57;;;;;;;114.80;15.75;;;1.10;99.90;;;;;;4862434;29;20041;-64
2022/01/15 09:02:23;;;;;;;103.82;18.23;;;1.10;99.90;;;;;;4851525;29;20454;-64
2022/01/15 09:04:48;;;;;;;99.70;17.55;;;1.10;99.90;;;;;;4862944;29;20043;-64
2022/01/15 09:07:14;;;;;;;109.30;19.05;;;1.10;99.90;;;;;;4862764;29;20041;-64
2022/01/15 09:09:39;;;;;;;103.03;17.05;;;1.00;99.90;;;;;;4852021;29;20119;-64
2022/01/15 09:12:05;;;;;;;74.35;16.38;;;1.20;99.90;;;;;;4847374;29;20109;-64
2022/01/15 09:14:30;;;;;;;147.73;28.65;;;1.20;99.90;;;;;;4868449;29;20821;-65
2022/01/15 09:16:56;;;;;;;81.85;16.02;;;1.20;99.90;;;;;;4860448;29;20070;-65
2022/01/15 09:19:21;;;;;;;67.57;14.45;;;1.40;99.90;;;;;;4864262;29;20033;-64
2022/01/15 09:21:47;;;;;;;86.05;18.30;;;1.40;99.90;;;;;;4845403;29;20644;-65
2022/01/15 09:24:12;;;;;;;92.13;22.83;;;1.40;99.90;;;;;;4832155;29;20037;-64
2022/01/15 09:32:03;;;;;;;93.75;18.20;;;1.80;99.90;;;;;;4864372;29;20149;-70
2022/01/15 09:34:28;;;;;;;72.43;15.32;;;1.90;99.90;;;;;;4859427;29;20409;-70
2022/01/15 09:36:55;;;;;;;80.50;15.65;;;2.00;99.90;;;;;;4847687;29;20033;-70
2022/01/15 09:39:20;;;;;;;86.00;15.90;;;2.00;99.90;;;;;;4849836;29;20520;-70
2022/01/15 09:41:47;;;;;;;76.97;17.65;;;2.10;99.90;;;;;;4864636;29;20115;-69
2022/01/15 09:44:13;;;;;;;76.63;17.08;;;2.10;99.90;;;;;;4864528;29;20029;-70
2022/01/15 09:46:38;;;;;;;95.35;23.10;;;2.20;99.90;;;;;;4867049;29;20503;-70
2022/01/15 09:49:04;;;;;;;67.97;19.00;;;2.20;99.90;;;;;;4861611;29;20037;-70
2022/01/15 09:51:29;;;;;;;74.30;19.77;;;2.40;99.90;;;;;;4866002;29;20037;-70
2022/01/15 09:53:55;;;;;;;70.90;20.20;;;2.40;99.90;;;;;;4858541;29;20026;-70
2022/01/15 09:56:20;;;;;;;107.70;29.73;;;2.60;99.90;;;;;;4853847;29;20144;-70
2022/01/15 09:58:46;;;;;;;58.63;14.35;;;2.50;99.90;;;;;;4861863;29;20035;-70
2022/01/15 10:01:11;;;;;;;50.40;13.52;;;2.70;99.90;;;;;;4841796;29;20051;-70
2022/01/15 10:03:37;;;;;;;52.80;12.35;;;2.70;99.90;;;;;;4866159;29;20412;-70
2022/01/15 10:06:02;;;;;;;42.92;10.68;;;2.90;99.90;;;;;;4862957;29;20033;-70
2022/01/15 10:08:28;;;;;;;42.45;11.60;;;3.00;99.90;;;;;;4854210;29;20146;-70
2022/01/15 10:10:55;;;;;;;42.33;10.48;;;3.00;99.90;;;;;;4849016;29;20619;-69
2022/01/15 10:13:21;;;;;;;41.00;10.10;;;3.20;99.90;;;;;;4861671;29;20121;-69
2022/01/15 10:15:46;;;;;;;44.13;9.82;;;3.10;99.90;;;;;;4859033;29;20176;-70
2022/01/15 10:18:12;;;;;;;42.67;12.68;;;3.10;99.90;;;;;;4860564;29;20092;-69
2022/01/15 10:20:37;;;;;;;36.85;10.13;;;3.20;99.90;;;;;;4863573;29;20513;-70
2022/01/15 10:23:03;;;;;;;125.82;27.80;;;3.20;99.90;;;;;;4861220;29;20140;-69
2022/01/15 10:25:29;;;;;;;49.20;11.23;;;3.40;99.90;;;;;;4862038;29;20644;-70
2022/01/15 10:27:54;;;;;;;36.17;9.23;;;3.50;99.90;;;;;;4834189;29;20446;-69
2022/01/15 10:30:20;;;;;;;41.22;10.27;;;3.60;99.90;;;;;;4861156;29;20041;-70
2022/01/15 10:32:45;;;;;;;32.50;7.25;;;3.80;99.90;;;;;;4852874;29;20466;-70
2022/01/15 10:35:11;;;;;;;36.05;10.13;;;3.80;99.90;;;;;;4844271;29;20202;-70
2022/01/15 10:37:37;;;;;;;60.50;18.77;;;3.90;99.90;;;;;;4848166;29;20036;-70
2022/01/15 10:40:03;;;;;;;30.00;7.32;;;4.00;99.90;;;;;;4859731;29;20048;-69
2022/01/15 10:42:28;;;;;;;65.10;20.30;;;4.10;99.90;;;;;;4865434;29;20029;-70
2022/01/15 10:44:54;;;;;;;44.90;12.00;;;4.20;99.90;;;;;;4856171;29;20029;-70
2022/01/15 10:47:19;;;;;;;36.50;8.23;;;4.20;99.90;;;;;;4858167;29;20410;-70
2022/01/15 10:49:45;;;;;;;25.38;5.75;;;4.10;99.90;;;;;;4862744;29;20067;-70
2022/01/15 10:52:10;;;;;;;26.98;6.00;;;4.10;99.90;;;;;;4862236;29;20055;-70
2022/01/15 10:54:36;;;;;;;30.42;5.88;;;4.20;99.90;;;;;;4853378;29;20041;-70
2022/01/15 10:57:02;;;;;;;21.85;5.30;;;4.10;99.90;;;;;;4844049;29;20093;-70
2022/01/15 10:59:27;;;;;;;25.60;6.10;;;4.30;99.90;;;;;;4860128;29;20037;-70
2022/01/15 11:01:52;;;;;;;26.48;6.68;;;4.40;99.90;;;;;;4863429;29;20115;-70
2022/01/15 11:04:18;;;;;;;18.27;4.65;;;4.40;99.90;;;;;;4845472;29;20114;-70
2022/01/15 11:06:43;;;;;;;25.92;6.50;;;4.60;99.90;;;;;;4866178;29;20044;-70
2022/01/15 11:09:09;;;;;;;21.63;4.75;;;4.60;99.90;;;;;;4856548;29;20130;-70
2022/01/15 11:11:35;;;;;;;28.42;7.43;;;4.60;99.90;;;;;;4864538;29;20040;-70
2022/01/15 11:14:00;;;;;;;32.00;6.32;;;4.60;99.90;;;;;;4864082;29;20465;-70
2022/01/15 11:16:26;;;;;;;35.28;5.38;;;4.80;99.90;;;;;;4840577;29;20030;-70
2022/01/15 11:18:54;;;;;;;37.13;6.47;;;4.90;99.90;;;;;;4850490;29;20037;-70
2022/01/15 11:21:20;;;;;;;28.40;3.97;;;4.90;99.90;;;;;;4847589;29;20034;-70
2022/01/15 11:23:45;;;;;;;25.70;4.68;;;5.00;99.90;;;;;;4850586;29;20575;-69
2022/01/15 11:26:11;;;;;;;30.17;5.45;;;5.00;99.90;;;;;;4848448;29;20085;-70
2022/01/15 11:28:36;;;;;;;33.92;5.78;;;5.10;99.90;;;;;;4859841;29;20071;-70
2022/01/15 11:31:02;;;;;;;29.83;4.93;;;5.20;99.90;;;;;;4858294;29;20037;-69
2022/01/15 11:33:27;;;;;;;27.77;4.80;;;5.40;99.90;;;;;;4856965;29;20029;-70
2022/01/15 11:35:53;;;;;;;27.08;5.68;;;5.50;99.90;;;;;;4862916;29;20037;-69
2022/01/15 11:38:18;;;;;;;31.95;6.47;;;5.50;99.90;;;;;;4861598;29;20402;-70
2022/01/15 11:40:46;;;;;;;22.38;5.03;;;5.70;99.90;;;;;;4841688;29;20041;-70
2022/01/15 11:43:12;;;;;;;40.55;4.18;;;5.80;99.90;;;;;;4863863;29;20506;-69
2022/01/15 11:45:37;;;;;;;30.60;3.92;;;6.00;99.90;;;;;;4832784;29;20029;-70
2022/01/15 11:48:03;;;;;;;23.88;5.00;;;6.00;99.90;;;;;;4863913;29;20379;-70
2022/01/15 11:50:28;;;;;;;29.15;4.70;;;6.10;99.90;;;;;;4862950;29;20040;-70
2022/01/15 11:52:54;;;;;;;26.70;4.70;;;6.10;99.90;;;;;;4855631;29;20124;-70
2022/01/15 11:55:20;;;;;;;23.08;5.03;;;6.20;99.90;;;;;;4863466;29;20660;-69
2022/01/15 11:57:46;;;;;;;21.80;4.53;;;6.30;99.90;;;;;;4860454;29;20049;-71
2022/01/15 12:00:11;;;;;;;22.70;5.18;;;6.50;99.90;;;;;;4862484;29;20037;-71
2022/01/15 12:02:36;;;;;;;28.35;5.55;;;6.40;99.90;;;;;;4866038;29;20036;-71
2022/01/15 12:05:02;;;;;;;30.67;4.65;;;6.50;99.90;;;;;;4861612;29;20232;-71
2022/01/15 12:07:27;;;;;;;31.60;5.35;;;6.60;99.90;;;;;;4849100;29;20782;-71
2022/01/15 12:09:53;;;;;;;28.25;5.93;;;6.70;99.90;;;;;;4861739;29;20069;-71
2022/01/15 12:12:19;;;;;;;26.58;4.13;;;6.80;99.90;;;;;;4863976;29;20584;-71
2022/01/15 12:14:44;;;;;;;29.92;7.25;;;6.70;99.90;;;;;;4841310;29;20085;-71
2022/01/15 12:17:10;;;;;;;30.42;4.60;;;6.40;99.90;;;;;;4866228;29;20033;-71
2022/01/15 12:19:35;;;;;;;20.13;4.15;;;6.30;99.90;;;;;;4862522;29;20029;-71
2022/01/15 12:22:03;;;;;;;32.33;6.13;;;6.20;99.90;;;;;;4859440;29;20044;-71
2022/01/15 12:24:28;;;;;;;44.13;9.90;;;6.00;99.90;;;;;;4861726;29;20485;-71
2022/01/15 12:26:54;;;;;;;31.45;5.20;;;5.90;99.90;;;;;;4850088;29;20131;-69
2022/01/15 12:29:20;;;;;;;28.67;5.63;;;5.90;99.90;;;;;;4863399;29;20486;-69
2022/01/15 12:31:46;;;;;;;25.85;4.85;;;5.80;99.90;;;;;;4850954;29;20036;-68
2022/01/15 12:34:11;;;;;;;20.92;4.65;;;5.70;99.90;;;;;;4868669;29;20410;-68
2022/01/15 12:36:37;;;;;;;23.40;4.25;;;5.70;99.90;;;;;;4850839;29;20072;-68
2022/01/15 12:39:02;;;;;;;26.17;4.90;;;5.70;99.90;;;;;;4857287;29;20044;-69
2022/01/15 12:41:28;;;;;;;23.33;3.83;;;5.70;99.90;;;;;;4862451;29;20037;-68
2022/01/15 12:43:54;;;;;;;35.15;3.88;;;5.60;99.90;;;;;;4850528;29;20052;-69
2022/01/15 12:46:20;;;;;;;22.90;4.03;;;5.50;99.90;;;;;;4863522;29;20049;-69
2022/01/15 12:48:45;;;;;;;21.15;4.03;;;5.60;99.90;;;;;;4862798;29;20200;-68
2022/01/15 12:51:11;;;;;;;23.48;4.88;;;5.50;99.90;;;;;;4863727;29;20103;-69